Time;durP1;ratioP1;P1;durP2;ratioP2;P2;SDS_P1;SDS_P2;PMS_P1;PMS_P2;Temp;Humidity;BMP_temperature;BMP_pressure;BME280_temperature;BME280_humidity;BME280_pressure;Samples;Min_cycle;Max_cycle;Signal;HPM_P1;HPM_P2
2022/09/07 00:01:13;;;;;;;15.37;11.63;;;;;;;16.71;100.00;101211.22;5012494;28;20040;-86
2022/09/07 00:03:38;;;;;;;15.95;10.48;;;;;;;16.68;100.00;101194.75;5012888;28;20026;-86
2022/09/07 00:06:09;;;;;;;12.73;8.70;;;;;;;16.57;100.00;101188.66;4994470;28;20022;-86
2022/09/07 00:08:35;;;;;;;10.20;7.73;;;;;;;16.39;100.00;101185.63;5012862;28;20054;-85
2022/09/07 00:11:04;;;;;;;10.50;7.60;;;;;;;16.37;100.00;101193.22;5011902;28;20324;-87
2022/09/07 00:13:31;;;;;;;10.05;6.88;;;;;;;16.21;100.00;101173.66;5013325;28;20112;-85
2022/09/07 00:15:57;;;;;;;10.65;6.40;;;;;;;16.05;100.00;101154.91;5012074;28;20022;-85
2022/09/07 00:18:23;;;;;;;10.17;5.80;;;;;;;15.95;100.00;101156.91;5012402;28;20659;-85
2022/09/07 00:21:00;;;;;;;8.35;6.25;;;;;;;15.86;100.00;101154.03;5011757;28;20406;-85
2022/09/07 00:23:26;;;;;;;7.32;6.10;;;;;;;15.80;100.00;101142.44;5012569;28;20068;-85
2022/09/07 00:25:51;;;;;;;6.72;5.88;;;;;;;15.76;100.00;101154.91;5012015;28;20022;-85
2022/09/07 00:28:16;;;;;;;10.37;5.90;;;;;;;15.62;100.00;101148.53;5012210;28;20436;-85
2022/09/07 00:30:42;;;;;;;9.10;5.87;;;;;;;15.52;100.00;101147.53;5011684;28;20025;-85
2022/09/07 00:33:08;;;;;;;9.00;5.80;;;;;;;15.44;100.00;101138.16;5011376;28;20489;-85
2022/09/07 00:35:38;;;;;;;9.25;5.75;;;;;;;15.38;100.00;101146.56;5012070;28;20508;-85
2022/09/07 00:38:04;;;;;;;10.25;5.90;;;;;;;15.35;100.00;101139.03;5011508;28;20080;-85
2022/09/07 00:40:29;;;;;;;8.17;5.83;;;;;;;15.36;100.00;101151.44;5011674;28;20057;-85
2022/09/07 00:42:55;;;;;;;6.70;5.23;;;;;;;15.32;100.00;101153.91;5011516;28;20443;-85
2022/09/07 00:45:20;;;;;;;9.13;5.50;;;;;;;15.20;100.00;101139.97;4994290;28;20780;-85
2022/09/07 00:48:18;;;;;;;9.00;5.20;;;;;;;15.29;100.00;101146.38;5011564;28;20029;-85
2022/09/07 00:50:49;;;;;;;7.85;5.78;;;;;;;15.23;100.00;101136.72;5011378;28;20330;-87
2022/09/07 00:53:22;;;;;;;11.95;5.60;;;;;;;15.23;100.00;101134.81;5011902;28;20486;-87
2022/09/07 00:55:50;;;;;;;8.48;5.60;;;;;;;15.23;100.00;101134.81;4994284;28;20051;-87
2022/09/07 00:58:16;;;;;;;11.15;5.93;;;;;;;15.18;100.00;101124.06;5011807;28;20030;-87
2022/09/07 01:00:44;;;;;;;8.38;5.25;;;;;;;15.17;100.00;101118.94;5011687;28;20022;-88
2022/09/07 01:03:10;;;;;;;12.05;5.80;;;;;;;15.12;100.00;101104.41;5011448;28;20022;-87
2022/09/07 01:05:52;;;;;;;6.85;5.15;;;;;;;15.07;100.00;101098.25;5011173;28;20034;-87
2022/09/07 01:08:18;;;;;;;9.67;5.50;;;;;;;14.99;100.00;101094.25;5011911;28;20072;-86
2022/09/07 01:10:45;;;;;;;8.73;5.80;;;;;;;14.96;100.00;101094.81;5011324;28;20357;-87
2022/09/07 01:13:10;;;;;;;8.25;5.47;;;;;;;15.00;100.00;101117.44;5011388;28;20022;-88
2022/09/07 01:15:50;;;;;;;8.23;5.57;;;;;;;14.87;100.00;101101.91;5011705;28;20041;-87
2022/09/07 01:18:52;;;;;;;8.55;5.25;;;;;;;14.92;100.00;101109.94;5012103;28;20076;-87
2022/09/07 01:21:26;;;;;;;9.48;5.65;;;;;;;14.95;100.00;101115.59;5011154;28;20631;-88
2022/09/07 01:24:15;;;;;;;7.78;5.18;;;;;;;14.92;100.00;101116.16;4993568;28;20116;-87
2022/09/07 01:27:18;;;;;;;8.80;5.40;;;;;;;14.89;100.00;101118.59;5011473;28;20022;-87
2022/09/07 01:29:55;;;;;;;8.85;5.50;;;;;;;14.94;100.00;101113.97;5011123;28;20739;-87
2022/09/07 01:32:41;;;;;;;9.85;5.10;;;;;;;14.94;100.00;101127.47;5011108;28;20075;-87
2022/09/07 01:35:19;;;;;;;9.48;5.38;;;;;;;14.88;100.00;101119.69;5010887;28;20479;-87
2022/09/07 01:37:56;;;;;;;7.80;5.17;;;;;;;14.94;100.00;101132.06;5011301;28;20448;-88
2022/09/07 01:40:37;;;;;;;7.47;5.60;;;;;;;14.89;100.00;101115.88;5010879;28;20680;-87
2022/09/07 01:43:21;;;;;;;8.85;5.43;;;;;;;14.92;100.00;101121.53;5011161;28;20084;-87
2022/09/07 01:45:46;;;;;;;8.25;5.38;;;;;;;14.87;100.00;101104.59;5012843;28;20482;-88
2022/09/07 01:48:17;;;;;;;8.43;5.20;;;;;;;14.86;100.00;101117.25;5017359;28;20080;-87
2022/09/07 01:50:50;;;;;;;6.80;4.85;;;;;;;14.91;100.00;101119.94;5018893;28;20025;-87
2022/09/07 01:53:27;;;;;;;6.40;5.07;;;;;;;14.87;100.00;101112.69;5014657;28;20037;-87
2022/09/07 01:55:59;;;;;;;6.83;4.83;;;;;;;14.90;100.00;101115.63;5011058;28;20281;-86
2022/09/07 01:58:42;;;;;;;6.47;5.57;;;;;;;14.91;100.00;101119.13;5011690;28;20022;-87
2022/09/07 02:01:14;;;;;;;7.13;4.97;;;;;;;14.92;100.00;101121.53;5010240;28;20030;-87
2022/09/07 02:03:56;;;;;;;6.75;4.80;;;;;;;14.91;100.00;101117.25;5010719;28;20041;-87
2022/09/07 02:06:32;;;;;;;7.53;4.70;;;;;;;14.92;100.00;101126.94;5010706;28;20026;-87
2022/09/07 02:09:02;;;;;;;7.57;4.40;;;;;;;14.94;100.00;101130.16;5010228;28;20052;-85
2022/09/07 02:11:41;;;;;;;7.85;4.90;;;;;;;14.91;100.00;101132.59;5010084;28;20026;-85
2022/09/07 02:14:17;;;;;;;6.53;4.75;;;;;;;14.89;100.00;101126.69;5010109;28;20049;-85
2022/09/07 02:17:05;;;;;;;6.35;4.70;;;;;;;14.83;100.00;101124.03;5009741;28;20038;-85
2022/09/07 02:19:44;;;;;;;6.00;5.13;;;;;;;14.90;100.00;101120.19;5010475;28;20022;-86
2022/09/07 02:22:15;;;;;;;7.33;5.10;;;;;;;14.87;100.00;101112.69;4992554;28;20285;-85
2022/09/07 02:24:48;;;;;;;7.00;5.40;;;;;;;14.93;100.00;101111.56;5010327;28;20033;-85
2022/09/07 02:27:18;;;;;;;6.60;5.00;;;;;;;14.91;100.00;101101.03;5010407;28;20029;-85
2022/09/07 02:29:43;;;;;;;8.02;5.10;;;;;;;14.86;100.00;101106.47;5009693;28;20473;-85
2022/09/07 02:32:10;;;;;;;8.43;5.00;;;;;;;14.84;100.00;101112.16;4992218;28;20057;-87
2022/09/07 02:34:36;;;;;;;6.07;4.88;;;;;;;14.91;100.00;101121.81;5010292;28;20107;-85
2022/09/07 02:37:05;;;;;;;9.40;5.68;;;;;;;14.93;100.00;101120.47;5010247;28;20648;-85
2022/09/07 02:39:30;;;;;;;9.38;5.35;;;;;;;14.92;100.00;101118.03;5009991;28;20072;-85
2022/09/07 02:41:56;;;;;;;7.03;5.30;;;;;;;14.86;100.00;101113.78;5010255;28;20527;-85
2022/09/07 02:44:26;;;;;;;6.63;5.40;;;;;;;14.84;100.00;101119.44;4992689;28;20018;-85
2022/09/07 02:47:13;;;;;;;7.17;5.33;;;;;;;14.81;100.00;101109.19;5010059;28;20036;-85
2022/09/07 02:50:11;;;;;;;7.53;6.07;;;;;;;14.75;100.00;101105.72;5009967;28;20451;-86
2022/09/07 02:52:49;;;;;;;6.00;5.40;;;;;;;14.76;100.00;101109.25;5010194;28;20030;-85
2022/09/07 02:55:17;;;;;;;6.28;5.20;;;;;;;14.77;100.00;101118.94;5009925;28;20534;-85
2022/09/07 02:58:00;;;;;;;7.60;5.55;;;;;;;14.78;100.00;101121.34;4991740;28;20026;-85
2022/09/07 03:00:32;;;;;;;6.85;5.78;;;;;;;14.90;100.00;101131.00;5009517;28;20033;-85
2022/09/07 03:03:14;;;;;;;8.90;6.53;;;;;;;15.03;100.00;101130.38;4992699;28;20108;-85
2022/09/07 03:05:48;;;;;;;7.97;6.25;;;;;;;15.10;100.00;101116.56;5010105;28;20488;-85
2022/09/07 03:08:25;;;;;;;8.15;6.13;;;;;;;15.16;100.00;101112.72;5009954;28;20389;-85
2022/09/07 03:10:52;;;;;;;7.25;6.22;;;;;;;15.24;100.00;101117.53;5008967;28;20485;-85
2022/09/07 03:13:21;;;;;;;9.37;6.50;;;;;;;15.28;100.00;101113.19;5010045;28;20025;-85
2022/09/07 03:15:47;;;;;;;6.93;6.00;;;;;;;15.34;100.00;101115.84;5009806;28;20277;-85
2022/09/07 03:18:12;;;;;;;9.88;5.97;;;;;;;15.38;100.00;101104.19;5009958;28;20026;-85
2022/09/07 03:20:37;;;;;;;8.33;6.13;;;;;;;15.39;100.00;101097.72;5009676;28;20014;-85
2022/09/07 03:23:02;;;;;;;7.00;6.30;;;;;;;15.42;100.00;101104.44;5009461;28;20025;-85
2022/09/07 03:25:28;;;;;;;8.10;6.30;;;;;;;15.34;100.00;101095.06;5009942;28;20096;-85
2022/09/07 03:27:53;;;;;;;8.03;5.93;;;;;;;15.42;100.00;101102.56;5009868;28;20394;-85
2022/09/07 03:30:18;;;;;;;11.70;6.73;;;;;;;15.44;100.00;101094.16;5013209;28;20489;-86
2022/09/07 03:32:44;;;;;;;8.88;6.43;;;;;;;15.51;100.00;101108.16;5012917;28;20502;-86
2022/09/07 03:35:09;;;;;;;7.77;6.33;;;;;;;15.53;100.00;101114.03;5013253;28;20033;-85
2022/09/07 03:37:38;;;;;;;9.30;6.63;;;;;;;15.47;100.00;101100.88;4995471;28;20440;-86
2022/09/07 03:40:06;;;;;;;9.07;6.70;;;;;;;15.52;100.00;101109.72;5012425;28;20029;-85
2022/09/07 03:42:32;;;;;;;7.60;6.00;;;;;;;15.50;100.00;101101.13;5013007;28;20029;-85
2022/09/07 03:44:57;;;;;;;7.28;6.50;;;;;;;15.43;100.00;101100.63;5012946;28;20106;-86
2022/09/07 03:47:22;;;;;;;8.97;6.20;;;;;;;15.43;100.00;101103.34;5013364;28;20034;-86
2022/09/07 03:49:50;;;;;;;8.43;6.60;;;;;;;15.47;100.00;101108.97;5012895;28;20026;-86
2022/09/07 03:52:15;;;;;;;7.00;6.28;;;;;;;15.40;100.00;101110.13;5013011;28;20080;-85
2022/09/07 03:54:40;;;;;;;7.73;6.93;;;;;;;15.36;100.00;101119.06;5012833;28;20104;-86
2022/09/07 03:57:06;;;;;;;8.67;7.10;;;;;;;15.24;100.00;101101.34;5012888;28;20021;-86
2022/09/07 03:59:32;;;;;;;7.87;6.60;;;;;;;15.24;100.00;101111.34;5012917;28;20488;-86
2022/09/07 04:01:57;;;;;;;10.03;7.33;;;;;;;15.12;100.00;101082.00;5012502;28;20320;-86
2022/09/07 04:04:22;;;;;;;9.80;6.57;;;;;;;15.15;100.00;101092.25;5012598;28;20033;-86
2022/09/07 04:06:47;;;;;;;10.97;7.37;;;;;;;15.16;100.00;101101.94;5012587;28;20039;-86
2022/09/07 04:09:14;;;;;;;10.77;7.88;;;;;;;15.20;100.00;101092.19;5012689;28;20470;-86
2022/09/07 04:11:39;;;;;;;10.13;8.10;;;;;;;15.24;100.00;101070.84;5012372;28;20022;-86
2022/09/07 04:14:05;;;;;;;10.77;7.60;;;;;;;15.27;100.00;101072.97;5012300;28;20041;-86
2022/09/07 04:16:30;;;;;;;10.93;7.43;;;;;;;15.26;100.00;101071.34;5012514;28;20033;-86
2022/09/07 04:18:57;;;;;;;9.73;7.60;;;;;;;15.27;100.00;101070.25;5012156;28;20105;-86
2022/09/07 04:21:25;;;;;;;10.77;7.78;;;;;;;15.22;100.00;101068.41;5011888;28;20049;-86
2022/09/07 04:23:50;;;;;;;9.63;7.10;;;;;;;15.19;100.00;101054.69;5011974;28;20029;-86
2022/09/07 04:26:21;;;;;;;10.40;7.57;;;;;;;15.18;100.00;101066.56;5011927;28;20285;-86
2022/09/07 04:28:47;;;;;;;8.43;7.03;;;;;;;15.14;100.00;101060.94;5012404;28;20029;-86
2022/09/07 04:31:15;;;;;;;9.18;7.10;;;;;;;15.13;100.00;101081.72;5011556;28;20034;-86
2022/09/07 04:33:42;;;;;;;9.43;6.97;;;;;;;15.09;100.00;101099.56;5012046;28;20362;-86
2022/09/07 04:36:07;;;;;;;12.32;7.55;;;;;;;15.03;100.00;101092.59;5012373;28;20069;-86
2022/09/07 04:38:34;;;;;;;9.17;7.07;;;;;;;14.97;100.00;101085.63;5013244;28;20073;-87
2022/09/07 04:41:07;;;;;;;11.02;7.07;;;;;;;14.97;100.00;101085.63;5011289;28;20109;-86
2022/09/07 04:43:32;;;;;;;10.40;7.18;;;;;;;14.94;100.00;101081.59;5013113;28;20026;-87
2022/09/07 04:46:02;;;;;;;11.07;7.50;;;;;;;15.02;100.00;101088.28;5012016;28;20045;-86
2022/09/07 04:48:27;;;;;;;10.90;8.20;;;;;;;15.07;100.00;101085.53;4994569;28;20763;-87
2022/09/07 04:50:52;;;;;;;9.48;8.13;;;;;;;15.14;100.00;101090.63;5011494;28;20026;-85
2022/09/07 04:53:18;;;;;;;11.60;7.87;;;;;;;15.25;100.00;101094.84;5011895;28;20022;-86
2022/09/07 04:55:44;;;;;;;12.00;8.07;;;;;;;15.31;100.00;101086.72;4994500;28;20025;-86
2022/09/07 04:58:09;;;;;;;9.67;8.00;;;;;;;15.23;100.00;101075.44;5011587;28;20284;-87
2022/09/07 05:00:35;;;;;;;11.40;8.13;;;;;;;15.29;100.00;101071.59;5011835;28;20108;-86
2022/09/07 05:03:00;;;;;;;10.32;7.65;;;;;;;15.36;100.00;101076.69;5011491;28;20052;-87
2022/09/07 05:05:25;;;;;;;14.90;8.20;;;;;;;15.48;100.00;101079.00;5011909;28;20088;-86
2022/09/07 05:07:50;;;;;;;12.07;8.40;;;;;;;15.51;100.00;101077.63;4993742;28;20458;-86
2022/09/07 05:10:16;;;;;;;9.80;7.43;;;;;;;15.57;100.00;101077.28;5012783;28;20032;-86
2022/09/07 05:12:41;;;;;;;12.83;8.23;;;;;;;15.60;100.00;101075.91;5011967;28;20030;-86
2022/09/07 05:15:07;;;;;;;10.23;7.97;;;;;;;15.59;100.00;101069.69;5011974;28;20105;-87
2022/09/07 05:17:32;;;;;;;10.55;8.20;;;;;;;15.50;100.00;101055.22;5010806;28;20374;-87
2022/09/07 05:19:57;;;;;;;9.70;7.63;;;;;;;15.37;100.00;101054.00;5011804;28;20053;-88
2022/09/07 05:22:24;;;;;;;13.00;8.33;;;;;;;15.44;100.00;101080.66;5011915;28;20508;-88
2022/09/07 05:24:49;;;;;;;9.82;8.02;;;;;;;15.40;100.00;101083.13;5010944;28;20072;-88
2022/09/07 05:27:14;;;;;;;12.53;8.47;;;;;;;15.40;100.00;101085.81;5011650;28;20037;-88
2022/09/07 05:29:40;;;;;;;13.60;8.43;;;;;;;15.40;100.00;101090.41;5011380;28;20032;-87
2022/09/07 05:32:05;;;;;;;12.23;8.00;;;;;;;15.49;100.00;101096.00;5011484;28;20072;-87
2022/09/07 05:34:30;;;;;;;12.70;9.50;;;;;;;15.52;100.00;101096.22;5011214;28;20041;-88
2022/09/07 05:36:56;;;;;;;16.13;9.30;;;;;;;15.63;100.00;101096.13;4993762;28;20452;-88
2022/09/07 05:39:21;;;;;;;13.60;9.33;;;;;;;15.66;100.00;101092.88;5011433;28;20116;-88
2022/09/07 05:41:46;;;;;;;14.37;8.77;;;;;;;15.70;100.00;101096.63;5014731;28;20029;-88
2022/09/07 05:44:13;;;;;;;12.80;8.60;;;;;;;15.69;100.00;101079.59;5013023;28;20781;-87
2022/09/07 05:46:39;;;;;;;10.50;8.00;;;;;;;15.78;100.00;101087.09;5011541;28;20030;-87
2022/09/07 05:49:04;;;;;;;12.40;8.67;;;;;;;15.75;100.00;101089.25;5011219;28;20026;-88
2022/09/07 05:51:29;;;;;;;11.60;8.97;;;;;;;15.80;100.00;101099.22;4993157;28;20589;-88
2022/09/07 05:53:55;;;;;;;13.60;9.60;;;;;;;15.87;100.00;101098.88;5011060;28;20141;-88
2022/09/07 05:56:20;;;;;;;14.97;9.23;;;;;;;15.96;100.00;101105.28;5011229;28;20025;-88
2022/09/07 05:58:49;;;;;;;16.05;10.05;;;;;;;15.92;100.00;101093.44;5011482;28;20037;-88
2022/09/07 06:01:15;;;;;;;14.77;9.67;;;;;;;15.95;100.00;101100.16;5010495;28;20401;-88
2022/09/07 06:03:41;;;;;;;11.90;8.95;;;;;;;15.99;100.00;101103.91;5010839;28;20030;-88
2022/09/07 06:06:11;;;;;;;12.35;9.32;;;;;;;15.99;100.00;101109.31;5010514;28;20033;-88
2022/09/07 06:08:42;;;;;;;13.85;9.65;;;;;;;15.95;100.00;101109.09;5010828;28;20084;-88
2022/09/07 06:11:09;;;;;;;18.90;10.00;;;;;;;15.89;100.00;101104.81;5010249;28;20030;-88
2022/09/07 06:16:11;;;;;;;16.67;10.02;;;;;;;15.88;100.00;101112.13;5557706;23;20425;-88
2022/09/07 06:18:39;;;;;;;18.07;10.60;;;;;;;15.88;100.00;101120.25;5029194;28;20021;-88
2022/09/07 06:21:17;;;;;;;13.87;10.23;;;;;;;15.87;100.00;101124.03;5028009;28;20288;-87
2022/09/07 06:23:43;;;;;;;16.38;10.57;;;;;;;15.88;100.00;101120.25;5029125;28;20021;-87
2022/09/07 06:26:10;;;;;;;19.08;12.52;;;;;;;15.87;100.00;101118.63;5030321;28;20029;-87
2022/09/07 06:28:40;;;;;;;21.23;13.38;;;;;;;15.90;100.00;101126.13;5030439;28;20352;-88
2022/09/07 06:31:08;;;;;;;23.13;13.68;;;;;;;16.09;100.00;101125.41;5029629;28;20025;-88
2022/09/07 06:33:34;;;;;;;24.98;15.82;;;;;;;16.29;100.00;101126.25;5029929;28;20033;-88
2022/09/07 06:36:09;;;;;;;24.02;16.00;;;;;;;16.41;100.00;101126.66;5030320;28;20025;-88
2022/09/07 06:38:36;;;;;;;26.35;15.85;;;;;;;16.46;100.00;101123.88;5030372;28;20105;-88
2022/09/07 06:41:04;;;;;;;25.02;14.88;;;;;;;16.57;100.00;101140.78;5029905;28;20057;-88
2022/09/07 06:43:29;;;;;;;24.33;15.43;;;;;;;16.57;100.00;101138.06;5030141;28;20024;-87
2022/09/07 06:45:55;;;;;;;23.27;16.47;;;;;;;16.61;100.00;101141.00;5030065;28;20272;-88
2022/09/07 06:48:21;;;;;;;33.45;19.38;;;;;;;16.49;100.00;101134.09;5030031;28;20036;-89
2022/09/07 06:51:14;;;;;;;31.67;19.83;;;;;;;16.56;100.00;101135.66;5030205;28;20068;-88
2022/09/07 06:53:39;;;;;;;39.30;20.42;;;;;;;16.65;100.00;101131.19;5023885;28;20034;-88
2022/09/07 06:56:07;;;;;;;45.27;23.20;;;;;;;16.76;100.00;101143.50;5030154;28;20396;-88
2022/09/07 06:58:33;;;;;;;42.13;24.40;;;;;;;16.90;100.00;101131.94;5029930;28;20038;-88
2022/09/07 07:01:04;;;;;;;48.95;25.45;;;;;;;17.02;100.00;101135.03;5029409;28;20541;-88
2022/09/07 07:03:30;;;;;;;43.63;25.40;;;;;;;17.17;100.00;101141.31;5031477;28;20111;-88
2022/09/07 07:05:56;;;;;;;50.20;27.03;;;;;;;17.28;100.00;101131.13;5033772;28;20068;-88
2022/09/07 07:08:23;;;;;;;44.43;26.47;;;;;;;17.34;100.00;101149.72;5033820;28;20041;-88
2022/09/07 07:10:49;;;;;;;43.30;26.33;;;;;;;17.27;100.00;101149.28;5032999;28;20025;-89
2022/09/07 07:13:15;;;;;;;43.08;26.42;;;;;;;17.15;100.00;101138.13;5033968;28;20025;-88
2022/09/07 07:15:41;;;;;;;46.78;27.08;;;;;;;17.13;100.00;101135.69;5034075;28;20044;-88
2022/09/07 07:18:06;;;;;;;44.50;27.77;;;;;;;17.29;100.00;101138.13;5034276;28;20554;-88
2022/09/07 07:20:34;;;;;;;51.50;29.65;;;;;;;17.40;100.00;101137.69;5033708;28;20510;-88
2022/09/07 07:22:59;;;;;;;42.95;27.33;;;;;;;17.47;100.00;101141.91;5033345;28;20033;-88
2022/09/07 07:25:25;;;;;;;43.97;28.23;;;;;;;17.61;100.00;101141.97;5033537;28;20024;-89
2022/09/07 07:27:50;;;;;;;44.40;27.27;;;;;;;17.69;100.00;101142.09;5046087;28;20025;-88
2022/09/07 07:30:17;;;;;;;41.90;27.43;;;;;;;17.92;100.00;101155.75;5048211;28;20037;-88
2022/09/07 07:32:43;;;;;;;43.33;27.23;;;;;;;18.03;100.00;101150.97;5035851;28;20038;-88
2022/09/07 07:35:18;;;;;;;46.78;27.92;;;;;;;18.14;100.00;101149.69;5033930;28;20025;-88
2022/09/07 07:37:44;;;;;;;40.22;25.92;;;;;;;18.27;100.00;101163.53;5032642;28;20029;-88
2022/09/07 07:40:11;;;;;;;37.97;25.37;;;;;;;18.46;100.00;101174.25;5034025;28;20556;-89
2022/09/07 07:42:38;;;;;;;35.67;22.95;;;;;;;18.63;100.00;101165.50;5032681;28;20068;-88
2022/09/07 07:45:05;;;;;;;33.28;23.80;;;;;;;18.68;100.00;101159.16;5033876;28;20026;-88
2022/09/07 07:47:31;;;;;;;38.72;23.60;;;;;;;18.74;100.00;101166.09;5032312;28;20041;-88
2022/09/07 07:49:56;;;;;;;34.37;23.97;;;;;;;18.74;100.00;101176.94;5032887;28;20134;-88
2022/09/07 07:52:23;;;;;;;33.10;22.77;;;;;;;18.61;100.00;101173.97;5033130;28;20071;-88
2022/09/07 07:54:48;;;;;;;34.42;22.90;;;;;;;18.53;100.00;101166.53;5033064;28;20059;-88
2022/09/07 07:57:15;;;;;;;29.27;21.35;;;;;;;18.54;100.00;101170.84;5031840;28;20033;-88
2022/09/07 07:59:41;;;;;;;28.40;19.90;;;;;;;18.68;100.00;101156.44;5033630;28;20036;-88
2022/09/07 08:02:12;;;;;;;29.70;22.30;;;;;;;18.85;100.00;101174.81;5032788;28;20288;-87
2022/09/07 08:04:37;;;;;;;33.85;22.05;;;;;;;18.90;100.00;101172.78;5033484;28;20643;-88
2022/09/07 08:07:03;;;;;;;29.23;21.27;;;;;;;18.93;100.00;101168.66;5032827;28;20053;-88
2022/09/07 08:09:28;;;;;;;31.80;22.57;;;;;;;19.01;100.00;101186.16;5033526;28;20583;-88
2022/09/07 08:11:54;;;;;;;31.43;21.73;;;;;;;19.06;100.00;101178.72;5031279;28;20833;-88
2022/09/07 08:14:20;;;;;;;29.50;21.53;;;;;;;19.14;100.00;101177.19;5031545;28;20070;-89
2022/09/07 08:16:46;;;;;;;30.63;21.23;;;;;;;19.09;100.00;101174.56;5033056;28;20550;-88
2022/09/07 08:19:11;;;;;;;30.10;21.13;;;;;;;19.10;100.00;101181.59;5031437;28;20112;-88
2022/09/07 08:21:36;;;;;;;29.20;20.33;;;;;;;19.08;100.00;101178.41;5032996;28;20049;-88
2022/09/07 08:24:02;;;;;;;27.50;19.70;;;;;;;19.20;100.00;101186.00;5032647;28;20037;-88
2022/09/07 08:26:28;;;;;;;31.50;20.65;;;;;;;19.22;100.00;101191.94;5033223;28;20021;-89
2022/09/07 08:28:53;;;;;;;27.60;20.17;;;;;;;19.20;100.00;101194.94;5032420;28;20452;-88
2022/09/07 08:31:19;;;;;;;25.90;19.50;;;;;;;19.14;100.00;101182.59;5032562;28;20029;-88
2022/09/07 08:33:44;;;;;;;28.30;19.97;;;;;;;19.14;100.00;101188.03;5030877;28;20280;-88
2022/09/07 08:36:15;;;;;;;27.20;19.23;;;;;;;19.08;100.00;101188.47;5032575;28;20044;-89
2022/09/07 08:38:41;;;;;;;26.80;19.02;;;;;;;19.15;100.00;101205.94;5032894;28;20025;-89
2022/09/07 08:41:47;;;;;;;25.30;18.47;;;;;;;19.25;100.00;101202.19;5031729;28;20496;-88
2022/09/07 08:44:31;;;;;;;25.73;17.60;;;;;;;19.30;99.28;101202.03;5015350;28;20065;-87
2022/09/07 08:47:14;;;;;;;24.95;17.02;;;;;;;19.36;99.66;101206.25;5032235;28;20052;-88
2022/09/07 08:49:51;;;;;;;26.30;17.63;;;;;;;19.43;99.37;101207.75;5030955;28;20071;-88
2022/09/07 08:52:36;;;;;;;21.20;15.55;;;;;;;19.55;99.31;101199.00;5032608;28;20495;-88
2022/09/07 08:55:13;;;;;;;19.27;14.15;;;;;;;19.59;95.84;101208.16;5032146;28;20029;-88
2022/09/07 08:57:44;;;;;;;17.90;13.80;;;;;;;19.71;96.13;101204.88;5032473;28;20104;-88
2022/09/07 09:00:21;;;;;;;16.88;13.80;;;;;;;19.80;96.00;101201.09;5031605;28;20029;-88
2022/09/07 09:02:47;;;;;;;19.23;13.37;;;;;;;19.92;97.28;101208.72;5032252;28;20033;-89
2022/09/07 09:05:45;;;;;;;18.07;13.10;;;;;;;20.00;96.40;101207.16;5031984;28;20317;-88
2022/09/07 09:08:17;;;;;;;16.52;12.73;;;;;;;20.01;94.79;101206.03;5032236;28;20029;-88
2022/09/07 09:11:00;;;;;;;14.98;12.32;;;;;;;20.07;95.49;101210.22;5031561;28;20108;-88
2022/09/07 09:13:41;;;;;;;14.27;11.98;;;;;;;20.15;95.89;101213.28;5032256;28;20029;-88
2022/09/07 09:16:14;;;;;;;16.70;11.30;;;;;;;20.19;93.84;101215.06;5031417;28;20060;-88
2022/09/07 09:18:50;;;;;;;17.25;11.13;;;;;;;20.27;92.55;101211.59;5031819;28;20512;-89
2022/09/07 09:21:17;;;;;;;15.07;10.38;;;;;;;20.24;91.03;101204.03;5031195;28;20026;-88
2022/09/07 09:31:34;;;;;;;14.48;8.60;;;;;;;20.63;89.54;101215.22;5205694;22;20053;-89
2022/09/07 09:34:14;;;;;;;12.73;8.25;;;;;;;20.58;88.81;101213.44;4993206;28;20064;-89
2022/09/07 09:36:48;;;;;;;10.40;8.68;;;;;;;20.57;86.90;101200.94;5014602;28;20030;-89
2022/09/07 09:39:30;;;;;;;9.70;7.50;;;;;;;20.61;88.42;101217.47;5027145;28;20046;-89
2022/09/07 09:42:13;;;;;;;10.57;8.32;;;;;;;20.49;87.56;101203.63;5011466;28;20462;-88
2022/09/07 09:44:39;;;;;;;11.55;8.10;;;;;;;20.47;87.03;101208.59;5011560;28;20088;-89
2022/09/07 09:47:05;;;;;;;12.73;7.57;;;;;;;20.50;85.63;101203.34;5011896;28;20062;-88
2022/09/07 09:49:35;;;;;;;8.20;6.20;;;;;;;20.76;84.74;101210.78;5011787;28;20355;-89
2022/09/07 09:52:03;;;;;;;8.87;5.73;;;;;;;21.03;81.22;101214.34;5011458;28;20383;-89
2022/09/07 09:54:39;;;;;;;10.93;5.40;;;;;;;21.37;82.18;101203.72;5011369;28;20041;-89
2022/09/07 09:57:05;;;;;;;10.80;6.22;;;;;;;21.55;79.04;101213.50;5011486;28;20083;-89
2022/09/07 09:59:32;;;;;;;8.60;5.18;;;;;;;21.65;77.58;101206.13;5011790;28;20061;-89
2022/09/07 10:01:58;;;;;;;8.70;4.90;;;;;;;21.78;77.14;101199.69;5010897;28;20038;-89
2022/09/07 10:04:26;;;;;;;9.37;5.10;;;;;;;21.92;76.93;101205.72;5012205;28;20029;-89
2022/09/07 10:06:54;;;;;;;10.43;4.82;;;;;;;21.89;76.37;101211.03;4994035;28;20092;-89
2022/09/07 10:09:23;;;;;;;10.13;4.57;;;;;;;21.65;74.65;101192.50;5011375;28;20109;-89
2022/09/07 10:11:58;;;;;;;7.60;4.32;;;;;;;21.63;76.85;101207.25;5010841;28;20025;-89
2022/09/07 10:14:30;;;;;;;8.00;4.30;;;;;;;21.70;76.78;101203.25;5010995;28;20076;-89
2022/09/07 10:16:57;;;;;;;6.47;4.07;;;;;;;21.70;75.31;101195.06;5015752;28;20038;-89
2022/09/07 10:19:35;;;;;;;9.18;3.70;;;;;;;21.57;77.62;101183.19;5024081;28;20025;-89
2022/09/07 10:22:19;;;;;;;9.82;4.35;;;;;;;21.67;77.48;101195.72;5028421;28;20022;-90
2022/09/07 10:24:45;;;;;;;9.03;3.60;;;;;;;21.71;73.75;101189.28;5020196;28;20033;-89
2022/09/07 10:27:27;;;;;;;5.67;2.87;;;;;;;21.90;75.76;101188.91;5033324;28;20288;-90
2022/09/07 10:29:53;;;;;;;10.15;3.13;;;;;;;22.37;73.07;101192.72;5014992;28;20021;-89
2022/09/07 10:32:45;;;;;;;8.18;2.70;;;;;;;22.68;73.95;101186.94;5026220;28;20041;-89
2022/09/07 10:35:24;;;;;;;5.40;2.40;;;;;;;23.01;72.53;101188.13;5011696;28;20026;-90
2022/09/07 10:38:18;;;;;;;7.78;2.78;;;;;;;23.18;73.70;101187.19;5012152;28;20018;-88
2022/09/07 10:40:56;;;;;;;7.67;2.53;;;;;;;23.37;70.88;101159.34;5015143;28;20018;-89
2022/09/07 10:43:29;;;;;;;10.80;2.67;;;;;;;23.86;67.00;101190.69;5016068;28;20277;-89
2022/09/07 10:46:12;;;;;;;7.40;2.47;;;;;;;23.93;67.99;101188.19;5016019;28;20465;-89
2022/09/07 10:49:18;;;;;;;7.22;2.20;;;;;;;24.19;67.49;101167.94;5015929;28;20025;-89
2022/09/07 10:51:58;;;;;;;8.50;2.08;;;;;;;24.56;65.10;101178.06;5015328;28;20119;-89
2022/09/07 10:54:54;;;;;;;11.13;2.03;;;;;;;24.79;63.90;101181.13;5016221;28;20037;-88
2022/09/07 10:57:41;;;;;;;5.13;2.00;;;;;;;25.07;65.29;101183.88;5016023;28;20088;-89
2022/09/07 11:00:16;;;;;;;8.13;2.65;;;;;;;25.19;60.12;101180.28;5015827;28;20034;-90
2022/09/07 11:03:17;;;;;;;7.03;2.22;;;;;;;25.31;60.03;101178.63;5015518;28;20022;-88
2022/09/07 11:06:12;;;;;;;6.90;2.17;;;;;;;25.37;59.78;101175.28;5015631;28;20494;-89
2022/09/07 11:09:07;;;;;;;5.40;2.40;;;;;;;25.28;59.25;101176.56;5015110;28;20037;-89
2022/09/07 11:11:40;;;;;;;4.33;2.17;;;;;;;24.93;58.19;101173.31;5014624;28;20780;-89
2022/09/07 11:14:12;;;;;;;6.22;2.13;;;;;;;24.78;57.97;101174.03;5014453;28;20068;-89
2022/09/07 11:16:41;;;;;;;9.73;2.20;;;;;;;24.56;56.84;101169.84;5015045;28;20022;-89
2022/09/07 11:19:15;;;;;;;10.90;2.30;;;;;;;24.78;56.77;101163.06;5014665;28;20037;-89
2022/09/07 11:22:15;;;;;;;6.95;2.40;;;;;;;25.15;56.45;101168.41;5014646;28;20076;-89
2022/09/07 11:25:15;;;;;;;6.38;1.67;;;;;;;25.23;57.75;101172.94;5014899;28;20121;-88
2022/09/07 11:27:47;;;;;;;5.82;2.03;;;;;;;25.20;54.58;101165.41;5015241;28;20060;-88
2022/09/07 11:30:21;;;;;;;7.50;2.28;;;;;;;25.37;54.24;101174.50;5014560;28;20425;-87
2022/09/07 11:32:54;;;;;;;5.55;1.80;;;;;;;25.58;53.73;101157.81;5015347;28;20034;-88
2022/09/07 11:35:40;;;;;;;5.93;1.73;;;;;;;25.93;52.87;101161.81;5016524;28;20049;-88
2022/09/07 11:38:19;;;;;;;6.97;1.90;;;;;;;25.97;53.02;101149.75;5016916;28;20365;-89
2022/09/07 11:41:14;;;;;;;6.63;1.77;;;;;;;25.90;52.72;101160.56;5015711;28;20049;-88